sensor_id;sensor_type;location;lat;lon;timestamp;temperature;humidity
24802;DHT22;12898;50.520;12.152;2022-10-24T00:00:46;14.80;99.90
24802;DHT22;12898;50.520;12.152;2022-10-24T00:03:13;15.00;99.90
24802;DHT22;12898;50.520;12.152;2022-10-24T00:05:43;15.10;99.90
24802;DHT22;12898;50.520;12.152;2022-10-24T00:08:10;15.20;99.90
24802;DHT22;12898;50.520;12.152;2022-10-24T00:10:39;15.20;99.90
24802;DHT22;12898;50.520;12.152;2022-10-24T00:13:06;15.20;99.90
24802;DHT22;12898;50.520;12.152;2022-10-24T00:15:32;15.20;99.90
24802;DHT22;12898;50.520;12.152;2022-10-24T00:17:58;15.20;99.90
24802;DHT22;12898;50.520;12.152;2022-10-24T00:20:23;15.20;99.90
24802;DHT22;12898;50.520;12.152;2022-10-24T00:22:49;15.20;99.90
24802;DHT22;12898;50.520;12.152;2022-10-24T00:25:15;15.20;99.90
24802;DHT22;12898;50.520;12.152;2022-10-24T00:27:40;15.10;99.90
24802;DHT22;12898;50.520;12.152;2022-10-24T00:30:06;15.10;99.90
24802;DHT22;12898;50.520;12.152;2022-10-24T00:32:32;15.00;99.90
24802;DHT22;12898;50.520;12.152;2022-10-24T00:34:58;15.00;99.90
24802;DHT22;12898;50.520;12.152;2022-10-24T00:37:24;14.90;99.90
24802;DHT22;12898;50.520;12.152;2022-10-24T00:39:49;14.90;99.90
24802;DHT22;12898;50.520;12.152;2022-10-24T00:42:15;14.80;99.90
24802;DHT22;12898;50.520;12.152;2022-10-24T00:44:41;14.80;99.90
24802;DHT22;12898;50.520;12.152;2022-10-24T00:47:12;14.70;99.90
24802;DHT22;12898;50.520;12.152;2022-10-24T00:49:43;14.70;99.90
24802;DHT22;12898;50.520;12.152;2022-10-24T00:52:10;14.60;99.90
24802;DHT22;12898;50.520;12.152;2022-10-24T00:54:38;14.60;99.90
24802;DHT22;12898;50.520;12.152;2022-10-24T00:57:16;14.50;99.90
24802;DHT22;12898;50.520;12.152;2022-10-24T00:59:48;14.50;99.90
24802;DHT22;12898;50.520;12.152;2022-10-24T01:02:16;14.50;99.90
24802;DHT22;12898;50.520;12.152;2022-10-24T01:04:42;14.40;99.90
24802;DHT22;12898;50.520;12.152;2022-10-24T01:07:21;14.30;99.90
24802;DHT22;12898;50.520;12.152;2022-10-24T01:16:11;14.40;99.90
24802;DHT22;12898;50.520;12.152;2022-10-24T01:29:43;14.40;99.90
24802;DHT22;12898;50.520;12.152;2022-10-24T01:41:02;14.20;99.90
24802;DHT22;12898;50.520;12.152;2022-10-24T01:43:38;14.10;99.90
24802;DHT22;12898;50.520;12.152;2022-10-24T01:46:12;14.10;99.90
24802;DHT22;12898;50.520;12.152;2022-10-24T01:48:48;14.10;99.90
24802;DHT22;12898;50.520;12.152;2022-10-24T01:51:20;14.10;99.90
24802;DHT22;12898;50.520;12.152;2022-10-24T01:53:50;14.10;99.90
24802;DHT22;12898;50.520;12.152;2022-10-24T01:56:16;14.10;99.90
24802;DHT22;12898;50.520;12.152;2022-10-24T01:58:42;14.10;99.90
24802;DHT22;12898;50.520;12.152;2022-10-24T02:01:11;14.00;99.90
24802;DHT22;12898;50.520;12.152;2022-10-24T02:03:48;14.00;99.90
24802;DHT22;12898;50.520;12.152;2022-10-24T02:06:31;14.00;99.90
24802;DHT22;12898;50.520;12.152;2022-10-24T02:09:03;14.00;99.90
24802;DHT22;12898;50.520;12.152;2022-10-24T02:11:33;13.90;99.90
24802;DHT22;12898;50.520;12.152;2022-10-24T02:14:04;13.90;99.90
24802;DHT22;12898;50.520;12.152;2022-10-24T02:16:34;13.80;99.90
24802;DHT22;12898;50.520;12.152;2022-10-24T02:19:00;13.80;99.90
24802;DHT22;12898;50.520;12.152;2022-10-24T02:21:36;13.80;99.90
24802;DHT22;12898;50.520;12.152;2022-10-24T02:24:21;13.80;99.90
24802;DHT22;12898;50.520;12.152;2022-10-24T02:27:03;13.80;99.90
24802;DHT22;12898;50.520;12.152;2022-10-24T02:32:16;13.80;99.90
24802;DHT22;12898;50.520;12.152;2022-10-24T02:34:46;13.80;99.90
24802;DHT22;12898;50.520;12.152;2022-10-24T02:37:14;13.80;99.90
24802;DHT22;12898;50.520;12.152;2022-10-24T02:39:41;13.80;99.90
24802;DHT22;12898;50.520;12.152;2022-10-24T02:42:11;13.70;99.90
24802;DHT22;12898;50.520;12.152;2022-10-24T02:44:39;13.80;99.90
24802;DHT22;12898;50.520;12.152;2022-10-24T02:47:07;13.70;99.90
24802;DHT22;12898;50.520;12.152;2022-10-24T02:49:35;13.70;99.90
24802;DHT22;12898;50.520;12.152;2022-10-24T02:52:01;13.70;99.90
24802;DHT22;12898;50.520;12.152;2022-10-24T02:54:27;13.60;99.90
24802;DHT22;12898;50.520;12.152;2022-10-24T02:57:00;13.60;99.90
24802;DHT22;12898;50.520;12.152;2022-10-24T02:59:27;13.60;99.90
24802;DHT22;12898;50.520;12.152;2022-10-24T03:01:54;13.60;99.90
24802;DHT22;12898;50.520;12.152;2022-10-24T03:04:20;13.60;99.90
24802;DHT22;12898;50.520;12.152;2022-10-24T03:06:46;13.50;99.90
24802;DHT22;12898;50.520;12.152;2022-10-24T03:09:12;13.50;99.90
24802;DHT22;12898;50.520;12.152;2022-10-24T03:11:38;13.40;99.90
24802;DHT22;12898;50.520;12.152;2022-10-24T03:14:04;13.40;99.90
24802;DHT22;12898;50.520;12.152;2022-10-24T03:16:30;13.30;99.90
24802;DHT22;12898;50.520;12.152;2022-10-24T03:18:56;13.30;99.90
24802;DHT22;12898;50.520;12.152;2022-10-24T03:21:22;13.30;99.90
24802;DHT22;12898;50.520;12.152;2022-10-24T03:23:47;13.20;99.90
24802;DHT22;12898;50.520;12.152;2022-10-24T03:26:14;13.10;99.90
24802;DHT22;12898;50.520;12.152;2022-10-24T03:28:40;13.10;99.90
24802;DHT22;12898;50.520;12.152;2022-10-24T03:31:06;13.10;99.90
24802;DHT22;12898;50.520;12.152;2022-10-24T03:33:32;13.10;99.90
24802;DHT22;12898;50.520;12.152;2022-10-24T03:35:57;13.00;99.90
24802;DHT22;12898;50.520;12.152;2022-10-24T03:38:23;13.00;99.90
24802;DHT22;12898;50.520;12.152;2022-10-24T03:40:50;12.90;99.90
24802;DHT22;12898;50.520;12.152;2022-10-24T03:43:16;12.90;99.90
24802;DHT22;12898;50.520;12.152;2022-10-24T03:45:42;12.90;99.90
24802;DHT22;12898;50.520;12.152;2022-10-24T03:48:08;12.90;99.90
24802;DHT22;12898;50.520;12.152;2022-10-24T03:50:34;12.90;99.90
24802;DHT22;12898;50.520;12.152;2022-10-24T03:52:59;12.90;99.90
24802;DHT22;12898;50.520;12.152;2022-10-24T03:55:26;12.90;99.90
24802;DHT22;12898;50.520;12.152;2022-10-24T03:57:52;12.90;99.90
24802;DHT22;12898;50.520;12.152;2022-10-24T04:00:18;12.90;99.90
24802;DHT22;12898;50.520;12.152;2022-10-24T04:02:45;12.90;99.90
24802;DHT22;12898;50.520;12.152;2022-10-24T04:05:12;12.90;99.90
24802;DHT22;12898;50.520;12.152;2022-10-24T04:07:37;12.90;99.90
24802;DHT22;12898;50.520;12.152;2022-10-24T04:10:04;12.90;99.90
24802;DHT22;12898;50.520;12.152;2022-10-24T04:12:31;12.90;99.90
24802;DHT22;12898;50.520;12.152;2022-10-24T04:14:57;12.90;99.90
24802;DHT22;12898;50.520;12.152;2022-10-24T04:17:23;12.90;99.90
24802;DHT22;12898;50.520;12.152;2022-10-24T04:19:48;12.90;99.90
24802;DHT22;12898;50.520;12.152;2022-10-24T04:22:14;13.00;99.90
24802;DHT22;12898;50.520;12.152;2022-10-24T04:24:40;13.00;99.90
24802;DHT22;12898;50.520;12.152;2022-10-24T04:27:06;13.00;99.90
24802;DHT22;12898;50.520;12.152;2022-10-24T04:29:32;13.10;99.90
24802;DHT22;12898;50.520;12.152;2022-10-24T04:31:58;13.10;99.90
24802;DHT22;12898;50.520;12.152;2022-10-24T04:34:24;13.00;99.90
24802;DHT22;12898;50.520;12.152;2022-10-24T04:36:50;13.00;99.90
24802;DHT22;12898;50.520;12.152;2022-10-24T04:39:15;13.00;99.90
24802;DHT22;12898;50.520;12.152;2022-10-24T04:41:41;13.10;99.90
24802;DHT22;12898;50.520;12.152;2022-10-24T04:44:07;13.10;99.90
24802;DHT22;12898;50.520;12.152;2022-10-24T04:46:32;13.10;99.90
24802;DHT22;12898;50.520;12.152;2022-10-24T04:48:58;13.10;99.90
24802;DHT22;12898;50.520;12.152;2022-10-24T04:51:24;13.10;99.90
24802;DHT22;12898;50.520;12.152;2022-10-24T04:53:50;13.00;99.90
24802;DHT22;12898;50.520;12.152;2022-10-24T04:56:16;13.00;99.90
24802;DHT22;12898;50.520;12.152;2022-10-24T04:58:43;12.90;99.90
24802;DHT22;12898;50.520;12.152;2022-10-24T05:01:08;12.90;99.90
24802;DHT22;12898;50.520;12.152;2022-10-24T05:03:34;13.00;99.90
24802;DHT22;12898;50.520;12.152;2022-10-24T05:06:00;13.00;99.90
24802;DHT22;12898;50.520;12.152;2022-10-24T05:08:26;13.00;99.90
24802;DHT22;12898;50.520;12.152;2022-10-24T05:10:52;12.90;99.90
24802;DHT22;12898;50.520;12.152;2022-10-24T05:13:18;12.90;99.90
24802;DHT22;12898;50.520;12.152;2022-10-24T05:15:43;12.90;99.90
24802;DHT22;12898;50.520;12.152;2022-10-24T05:18:09;12.90;99.90
24802;DHT22;12898;50.520;12.152;2022-10-24T05:20:35;12.90;99.90
24802;DHT22;12898;50.520;12.152;2022-10-24T05:23:00;12.90;99.90
24802;DHT22;12898;50.520;12.152;2022-10-24T05:25:26;12.90;99.90
24802;DHT22;12898;50.520;12.152;2022-10-24T05:27:52;12.90;99.90
24802;DHT22;12898;50.520;12.152;2022-10-24T05:30:18;12.90;99.90
24802;DHT22;12898;50.520;12.152;2022-10-24T05:32:44;12.90;99.90
24802;DHT22;12898;50.520;12.152;2022-10-24T05:35:10;12.90;99.90
24802;DHT22;12898;50.520;12.152;2022-10-24T05:37:37;12.90;99.90
24802;DHT22;12898;50.520;12.152;2022-10-24T05:40:05;12.90;99.90
24802;DHT22;12898;50.520;12.152;2022-10-24T05:42:32;12.90;99.90
24802;DHT22;12898;50.520;12.152;2022-10-24T05:44:57;12.90;99.90
24802;DHT22;12898;50.520;12.152;2022-10-24T05:47:23;12.90;99.90
24802;DHT22;12898;50.520;12.152;2022-10-24T05:49:49;12.80;99.90
24802;DHT22;12898;50.520;12.152;2022-10-24T05:52:14;12.80;99.90
24802;DHT22;12898;50.520;12.152;2022-10-24T05:54:40;12.80;99.90
24802;DHT22;12898;50.520;12.152;2022-10-24T05:57:06;12.90;99.90
24802;DHT22;12898;50.520;12.152;2022-10-24T05:59:31;12.80;99.90
24802;DHT22;12898;50.520;12.152;2022-10-24T06:01:57;12.80;99.90
24802;DHT22;12898;50.520;12.152;2022-10-24T06:04:23;12.80;99.90
24802;DHT22;12898;50.520;12.152;2022-10-24T06:06:49;12.80;99.90
24802;DHT22;12898;50.520;12.152;2022-10-24T06:09:14;12.90;99.90
24802;DHT22;12898;50.520;12.152;2022-10-24T06:11:40;12.80;99.90
24802;DHT22;12898;50.520;12.152;2022-10-24T06:14:07;12.90;99.90
24802;DHT22;12898;50.520;12.152;2022-10-24T06:16:34;12.80;99.90
24802;DHT22;12898;50.520;12.152;2022-10-24T06:19:00;12.90;99.90
24802;DHT22;12898;50.520;12.152;2022-10-24T06:21:26;12.90;99.90
24802;DHT22;12898;50.520;12.152;2022-10-24T06:23:52;12.90;99.90
24802;DHT22;12898;50.520;12.152;2022-10-24T06:26:18;13.00;99.90
24802;DHT22;12898;50.520;12.152;2022-10-24T06:28:44;13.00;99.90
24802;DHT22;12898;50.520;12.152;2022-10-24T06:31:10;13.00;99.90
24802;DHT22;12898;50.520;12.152;2022-10-24T06:33:38;13.10;99.90
24802;DHT22;12898;50.520;12.152;2022-10-24T06:36:05;13.10;99.90
24802;DHT22;12898;50.520;12.152;2022-10-24T06:38:34;13.10;99.90
24802;DHT22;12898;50.520;12.152;2022-10-24T06:41:07;13.10;99.90
24802;DHT22;12898;50.520;12.152;2022-10-24T06:43:35;13.20;99.90
24802;DHT22;12898;50.520;12.152;2022-10-24T06:46:06;13.20;99.90
24802;DHT22;12898;50.520;12.152;2022-10-24T06:48:33;13.30;99.90
24802;DHT22;12898;50.520;12.152;2022-10-24T06:51:00;13.40;99.90
24802;DHT22;12898;50.520;12.152;2022-10-24T06:53:26;13.40;99.90
24802;DHT22;12898;50.520;12.152;2022-10-24T06:55:52;13.50;99.90
24802;DHT22;12898;50.520;12.152;2022-10-24T06:58:17;13.50;99.90
24802;DHT22;12898;50.520;12.152;2022-10-24T07:00:43;13.50;99.90
24802;DHT22;12898;50.520;12.152;2022-10-24T07:03:13;13.60;99.90
24802;DHT22;12898;50.520;12.152;2022-10-24T07:05:39;13.60;99.90
24802;DHT22;12898;50.520;12.152;2022-10-24T07:08:06;13.60;99.90
24802;DHT22;12898;50.520;12.152;2022-10-24T07:10:33;13.60;99.90
24802;DHT22;12898;50.520;12.152;2022-10-24T07:13:02;13.70;99.90
24802;DHT22;12898;50.520;12.152;2022-10-24T07:15:27;13.70;99.90
24802;DHT22;12898;50.520;12.152;2022-10-24T07:17:56;13.70;99.90
24802;DHT22;12898;50.520;12.152;2022-10-24T07:20:22;13.70;99.90
24802;DHT22;12898;50.520;12.152;2022-10-24T07:22:47;13.80;99.90
24802;DHT22;12898;50.520;12.152;2022-10-24T07:25:13;13.80;99.90
24802;DHT22;12898;50.520;12.152;2022-10-24T07:27:40;13.80;99.90
24802;DHT22;12898;50.520;12.152;2022-10-24T07:30:07;13.90;99.90
24802;DHT22;12898;50.520;12.152;2022-10-24T07:32:33;13.90;99.90
24802;DHT22;12898;50.520;12.152;2022-10-24T07:34:58;14.00;99.90
24802;DHT22;12898;50.520;12.152;2022-10-24T07:37:24;14.00;99.90
24802;DHT22;12898;50.520;12.152;2022-10-24T07:39:50;14.10;99.90
24802;DHT22;12898;50.520;12.152;2022-10-24T07:42:16;14.10;99.90
24802;DHT22;12898;50.520;12.152;2022-10-24T07:44:43;14.10;99.90
24802;DHT22;12898;50.520;12.152;2022-10-24T07:47:09;14.10;99.90
24802;DHT22;12898;50.520;12.152;2022-10-24T07:49:37;14.10;99.90
24802;DHT22;12898;50.520;12.152;2022-10-24T07:52:03;14.10;99.90
24802;DHT22;12898;50.520;12.152;2022-10-24T07:54:29;14.20;99.90
24802;DHT22;12898;50.520;12.152;2022-10-24T07:56:55;14.30;99.90
24802;DHT22;12898;50.520;12.152;2022-10-24T07:59:20;14.30;99.90
24802;DHT22;12898;50.520;12.152;2022-10-24T08:01:46;14.30;99.90
24802;DHT22;12898;50.520;12.152;2022-10-24T08:04:12;14.30;99.90
24802;DHT22;12898;50.520;12.152;2022-10-24T08:06:39;14.30;99.90
24802;DHT22;12898;50.520;12.152;2022-10-24T08:09:09;14.30;99.90
24802;DHT22;12898;50.520;12.152;2022-10-24T08:11:34;14.30;99.90
24802;DHT22;12898;50.520;12.152;2022-10-24T08:14:00;14.30;99.90
24802;DHT22;12898;50.520;12.152;2022-10-24T08:16:29;14.30;99.90
24802;DHT22;12898;50.520;12.152;2022-10-24T08:18:55;14.20;99.90
24802;DHT22;12898;50.520;12.152;2022-10-24T08:21:22;14.20;99.90
24802;DHT22;12898;50.520;12.152;2022-10-24T08:23:52;14.20;99.90
24802;DHT22;12898;50.520;12.152;2022-10-24T08:26:20;14.20;99.90
24802;DHT22;12898;50.520;12.152;2022-10-24T08:28:47;14.20;99.90
24802;DHT22;12898;50.520;12.152;2022-10-24T08:31:16;14.30;99.90
24802;DHT22;12898;50.520;12.152;2022-10-24T08:33:44;14.40;99.90
24802;DHT22;12898;50.520;12.152;2022-10-24T08:36:25;14.40;99.90
24802;DHT22;12898;50.520;12.152;2022-10-24T08:38:53;14.50;99.90
24802;DHT22;12898;50.520;12.152;2022-10-24T08:41:35;14.50;99.90
24802;DHT22;12898;50.520;12.152;2022-10-24T08:44:05;14.50;99.90
24802;DHT22;12898;50.520;12.152;2022-10-24T08:52:39;14.60;99.90
24802;DHT22;12898;50.520;12.152;2022-10-24T08:55:17;14.60;99.90
24802;DHT22;12898;50.520;12.152;2022-10-24T08:57:48;14.60;99.90
24802;DHT22;12898;50.520;12.152;2022-10-24T09:00:25;14.50;99.90
24802;DHT22;12898;50.520;12.152;2022-10-24T09:03:21;14.50;99.90
24802;DHT22;12898;50.520;12.152;2022-10-24T09:05:54;14.50;99.90
24802;DHT22;12898;50.520;12.152;2022-10-24T09:08:28;14.50;99.90
24802;DHT22;12898;50.520;12.152;2022-10-24T09:11:00;14.50;99.90
24802;DHT22;12898;50.520;12.152;2022-10-24T09:13:28;14.40;99.90
24802;DHT22;12898;50.520;12.152;2022-10-24T09:15:55;14.50;99.90
24802;DHT22;12898;50.520;12.152;2022-10-24T09:20:51;14.50;99.90
24802;DHT22;12898;50.520;12.152;2022-10-24T09:23:20;14.50;99.90
24802;DHT22;12898;50.520;12.152;2022-10-24T09:25:50;14.50;99.90
24802;DHT22;12898;50.520;12.152;2022-10-24T09:28:18;14.50;99.90
24802;DHT22;12898;50.520;12.152;2022-10-24T09:30:44;14.50;99.90
24802;DHT22;12898;50.520;12.152;2022-10-24T09:33:21;14.60;99.90
24802;DHT22;12898;50.520;12.152;2022-10-24T09:35:51;14.60;99.90
24802;DHT22;12898;50.520;12.152;2022-10-24T09:40:51;14.50;99.90
24802;DHT22;12898;50.520;12.152;2022-10-24T09:43:30;14.50;99.90
24802;DHT22;12898;50.520;12.152;2022-10-24T09:46:05;14.50;99.90
24802;DHT22;12898;50.520;12.152;2022-10-24T09:48:54;14.50;99.90
24802;DHT22;12898;50.520;12.152;2022-10-24T09:51:38;14.50;99.90
24802;DHT22;12898;50.520;12.152;2022-10-24T09:54:28;14.60;99.90
24802;DHT22;12898;50.520;12.152;2022-10-24T09:57:05;14.60;99.90
24802;DHT22;12898;50.520;12.152;2022-10-24T09:59:41;14.50;99.90
24802;DHT22;12898;50.520;12.152;2022-10-24T10:02:28;14.50;99.90
24802;DHT22;12898;50.520;12.152;2022-10-24T10:07:32;14.50;99.90
24802;DHT22;12898;50.520;12.152;2022-10-24T10:10:44;14.50;99.90
24802;DHT22;12898;50.520;12.152;2022-10-24T10:13:15;14.50;99.90
24802;DHT22;12898;50.520;12.152;2022-10-24T10:15:56;14.60;99.90
24802;DHT22;12898;50.520;12.152;2022-10-24T10:18:30;14.60;99.90
24802;DHT22;12898;50.520;12.152;2022-10-24T10:23:36;14.70;99.90
24802;DHT22;12898;50.520;12.152;2022-10-24T10:26:25;14.70;99.90
24802;DHT22;12898;50.520;12.152;2022-10-24T10:29:05;14.80;99.90
24802;DHT22;12898;50.520;12.152;2022-10-24T10:31:40;14.80;99.90
24802;DHT22;12898;50.520;12.152;2022-10-24T10:34:32;14.90;99.90
24802;DHT22;12898;50.520;12.152;2022-10-24T10:37:26;14.90;99.90
24802;DHT22;12898;50.520;12.152;2022-10-24T10:40:23;14.90;99.90
24802;DHT22;12898;50.520;12.152;2022-10-24T10:43:36;14.90;99.90
24802;DHT22;12898;50.520;12.152;2022-10-24T10:49:15;14.80;99.90
24802;DHT22;12898;50.520;12.152;2022-10-24T10:51:58;14.80;99.90
24802;DHT22;12898;50.520;12.152;2022-10-24T10:57:23;14.70;99.90
24802;DHT22;12898;50.520;12.152;2022-10-24T11:00:43;14.70;99.90
24802;DHT22;12898;50.520;12.152;2022-10-24T11:09:09;14.80;99.90
24802;DHT22;12898;50.520;12.152;2022-10-24T11:11:45;14.70;99.90
24802;DHT22;12898;50.520;12.152;2022-10-24T11:17:17;14.70;99.90
24802;DHT22;12898;50.520;12.152;2022-10-24T11:22:47;14.70;99.90
24802;DHT22;12898;50.520;12.152;2022-10-24T11:25:31;14.70;99.90
24802;DHT22;12898;50.520;12.152;2022-10-24T11:28:14;14.80;99.90
24802;DHT22;12898;50.520;12.152;2022-10-24T11:30:50;14.80;99.90
24802;DHT22;12898;50.520;12.152;2022-10-24T11:33:28;14.80;99.90
24802;DHT22;12898;50.520;12.152;2022-10-24T11:36:22;14.90;99.90
24802;DHT22;12898;50.520;12.152;2022-10-24T11:42:02;14.90;99.90
24802;DHT22;12898;50.520;12.152;2022-10-24T11:49:46;14.90;99.90
24802;DHT22;12898;50.520;12.152;2022-10-24T11:52:25;15.00;99.90
24802;DHT22;12898;50.520;12.152;2022-10-24T11:54:56;15.00;99.90
24802;DHT22;12898;50.520;12.152;2022-10-24T11:57:27;15.00;99.90
24802;DHT22;12898;50.520;12.152;2022-10-24T11:59:54;15.10;99.90
24802;DHT22;12898;50.520;12.152;2022-10-24T12:02:43;15.10;99.90
24802;DHT22;12898;50.520;12.152;2022-10-24T12:08:39;15.30;99.90
24802;DHT22;12898;50.520;12.152;2022-10-24T12:14:13;15.30;99.90
24802;DHT22;12898;50.520;12.152;2022-10-24T12:19:45;15.40;99.90
24802;DHT22;12898;50.520;12.152;2022-10-24T12:22:24;15.40;99.90
24802;DHT22;12898;50.520;12.152;2022-10-24T12:25:18;15.40;99.90
24802;DHT22;12898;50.520;12.152;2022-10-24T12:27:53;15.40;99.90
24802;DHT22;12898;50.520;12.152;2022-10-24T12:30:22;15.50;99.90
24802;DHT22;12898;50.520;12.152;2022-10-24T12:33:10;15.50;99.90
24802;DHT22;12898;50.520;12.152;2022-10-24T12:35:53;15.60;99.90
24802;DHT22;12898;50.520;12.152;2022-10-24T12:40:54;15.80;99.90
24802;DHT22;12898;50.520;12.152;2022-10-24T12:59:27;16.20;99.90
24802;DHT22;12898;50.520;12.152;2022-10-24T13:10:48;16.10;99.90
24802;DHT22;12898;50.520;12.152;2022-10-24T13:18:55;16.20;99.90
24802;DHT22;12898;50.520;12.152;2022-10-24T13:21:43;16.20;99.90
24802;DHT22;12898;50.520;12.152;2022-10-24T13:24:20;16.30;99.90
24802;DHT22;12898;50.520;12.152;2022-10-24T13:26:50;16.40;99.90
24802;DHT22;12898;50.520;12.152;2022-10-24T13:39:37;16.60;99.90
24802;DHT22;12898;50.520;12.152;2022-10-24T13:42:12;16.40;99.90
24802;DHT22;12898;50.520;12.152;2022-10-24T13:44:48;16.40;99.90
24802;DHT22;12898;50.520;12.152;2022-10-24T13:47:30;16.40;99.90
24802;DHT22;12898;50.520;12.152;2022-10-24T13:52:44;16.30;99.90
24802;DHT22;12898;50.520;12.152;2022-10-24T13:55:32;16.30;99.90
24802;DHT22;12898;50.520;12.152;2022-10-24T13:58:11;16.20;99.90
24802;DHT22;12898;50.520;12.152;2022-10-24T14:00:46;16.20;99.90
24802;DHT22;12898;50.520;12.152;2022-10-24T14:03:19;16.10;99.90
24802;DHT22;12898;50.520;12.152;2022-10-24T14:05:49;16.10;99.90
24802;DHT22;12898;50.520;12.152;2022-10-24T14:08:37;16.10;99.90
24802;DHT22;12898;50.520;12.152;2022-10-24T14:11:12;16.00;99.90
24802;DHT22;12898;50.520;12.152;2022-10-24T14:13:51;15.90;99.90
24802;DHT22;12898;50.520;12.152;2022-10-24T14:16:29;15.80;99.90
24802;DHT22;12898;50.520;12.152;2022-10-24T14:19:11;15.80;99.90
24802;DHT22;12898;50.520;12.152;2022-10-24T14:21:45;15.80;99.90
24802;DHT22;12898;50.520;12.152;2022-10-24T14:24:16;15.80;99.90
24802;DHT22;12898;50.520;12.152;2022-10-24T14:26:43;15.70;99.90
24802;DHT22;12898;50.520;12.152;2022-10-24T14:29:23;15.70;99.90
24802;DHT22;12898;50.520;12.152;2022-10-24T14:32:00;15.70;99.90
24802;DHT22;12898;50.520;12.152;2022-10-24T14:34:27;15.70;99.90
24802;DHT22;12898;50.520;12.152;2022-10-24T14:36:59;15.70;99.90
24802;DHT22;12898;50.520;12.152;2022-10-24T14:39:27;15.70;99.90
24802;DHT22;12898;50.520;12.152;2022-10-24T14:41:53;15.80;99.90
24802;DHT22;12898;50.520;12.152;2022-10-24T14:44:20;15.80;99.90
24802;DHT22;12898;50.520;12.152;2022-10-24T14:47:22;15.80;99.90
24802;DHT22;12898;50.520;12.152;2022-10-24T14:50:00;15.90;99.90
24802;DHT22;12898;50.520;12.152;2022-10-24T14:52:30;15.90;99.90
24802;DHT22;12898;50.520;12.152;2022-10-24T14:55:04;15.90;99.90
24802;DHT22;12898;50.520;12.152;2022-10-24T14:57:33;15.90;99.90
24802;DHT22;12898;50.520;12.152;2022-10-24T15:00:02;15.80;99.90
24802;DHT22;12898;50.520;12.152;2022-10-24T15:02:40;15.80;99.90
24802;DHT22;12898;50.520;12.152;2022-10-24T15:08:01;15.60;99.90
24802;DHT22;12898;50.520;12.152;2022-10-24T15:10:44;15.50;99.90
24802;DHT22;12898;50.520;12.152;2022-10-24T15:13:19;15.50;99.90
24802;DHT22;12898;50.520;12.152;2022-10-24T15:15:57;15.40;99.90
24802;DHT22;12898;50.520;12.152;2022-10-24T15:18:54;15.30;99.90
24802;DHT22;12898;50.520;12.152;2022-10-24T15:21:23;15.30;99.90
24802;DHT22;12898;50.520;12.152;2022-10-24T15:23:53;15.30;99.90
24802;DHT22;12898;50.520;12.152;2022-10-24T15:31:30;15.10;99.90
24802;DHT22;12898;50.520;12.152;2022-10-24T15:33:57;15.10;99.90
24802;DHT22;12898;50.520;12.152;2022-10-24T15:36:25;15.00;99.90
24802;DHT22;12898;50.520;12.152;2022-10-24T15:38:59;15.00;99.90
24802;DHT22;12898;50.520;12.152;2022-10-24T15:41:28;14.90;99.90
24802;DHT22;12898;50.520;12.152;2022-10-24T15:43:55;14.90;99.90
24802;DHT22;12898;50.520;12.152;2022-10-24T15:46:21;14.80;99.90
24802;DHT22;12898;50.520;12.152;2022-10-24T15:48:47;14.80;99.90
24802;DHT22;12898;50.520;12.152;2022-10-24T15:51:20;14.80;99.90
24802;DHT22;12898;50.520;12.152;2022-10-24T15:53:47;14.70;99.90
24802;DHT22;12898;50.520;12.152;2022-10-24T15:56:15;14.70;99.90
24802;DHT22;12898;50.520;12.152;2022-10-24T15:58:41;14.70;99.90
24802;DHT22;12898;50.520;12.152;2022-10-24T16:01:25;14.70;99.90
24802;DHT22;12898;50.520;12.152;2022-10-24T16:03:53;14.70;99.90
24802;DHT22;12898;50.520;12.152;2022-10-24T16:06:20;14.60;99.90
24802;DHT22;12898;50.520;12.152;2022-10-24T16:08:46;14.50;99.90
24802;DHT22;12898;50.520;12.152;2022-10-24T16:11:12;14.50;99.90
24802;DHT22;12898;50.520;12.152;2022-10-24T16:13:38;14.40;99.90
24802;DHT22;12898;50.520;12.152;2022-10-24T16:16:04;14.40;99.90
24802;DHT22;12898;50.520;12.152;2022-10-24T16:18:30;14.40;99.90
24802;DHT22;12898;50.520;12.152;2022-10-24T16:20:57;14.50;99.90
24802;DHT22;12898;50.520;12.152;2022-10-24T16:23:23;14.50;99.90
24802;DHT22;12898;50.520;12.152;2022-10-24T16:25:51;14.50;99.90
24802;DHT22;12898;50.520;12.152;2022-10-24T16:28:22;14.50;99.90
24802;DHT22;12898;50.520;12.152;2022-10-24T16:30:51;14.50;99.90
24802;DHT22;12898;50.520;12.152;2022-10-24T16:33:17;14.50;99.90
24802;DHT22;12898;50.520;12.152;2022-10-24T16:35:45;14.50;99.90
24802;DHT22;12898;50.520;12.152;2022-10-24T16:38:12;14.50;99.90
24802;DHT22;12898;50.520;12.152;2022-10-24T16:40:40;14.50;99.90
24802;DHT22;12898;50.520;12.152;2022-10-24T16:43:09;14.40;99.90
24802;DHT22;12898;50.520;12.152;2022-10-24T16:45:36;14.40;99.90
24802;DHT22;12898;50.520;12.152;2022-10-24T16:48:02;14.40;99.90
24802;DHT22;12898;50.520;12.152;2022-10-24T16:50:29;14.40;99.90
24802;DHT22;12898;50.520;12.152;2022-10-24T16:52:58;14.40;99.90
24802;DHT22;12898;50.520;12.152;2022-10-24T16:55:26;14.40;99.90
24802;DHT22;12898;50.520;12.152;2022-10-24T16:57:52;14.30;99.90
24802;DHT22;12898;50.520;12.152;2022-10-24T17:00:26;14.40;99.90
24802;DHT22;12898;50.520;12.152;2022-10-24T17:02:53;14.30;99.90
24802;DHT22;12898;50.520;12.152;2022-10-24T17:05:22;14.30;99.90
24802;DHT22;12898;50.520;12.152;2022-10-24T17:07:48;14.30;99.90
24802;DHT22;12898;50.520;12.152;2022-10-24T17:10:15;14.30;99.90
24802;DHT22;12898;50.520;12.152;2022-10-24T17:12:44;14.20;99.90
24802;DHT22;12898;50.520;12.152;2022-10-24T17:15:14;14.30;99.90
24802;DHT22;12898;50.520;12.152;2022-10-24T17:17:41;14.20;99.90
24802;DHT22;12898;50.520;12.152;2022-10-24T17:20:07;14.20;99.90
24802;DHT22;12898;50.520;12.152;2022-10-24T17:22:35;14.30;99.90
24802;DHT22;12898;50.520;12.152;2022-10-24T17:25:02;14.30;99.90
24802;DHT22;12898;50.520;12.152;2022-10-24T17:27:28;14.20;99.90
24802;DHT22;12898;50.520;12.152;2022-10-24T17:29:54;14.20;99.90
24802;DHT22;12898;50.520;12.152;2022-10-24T17:32:20;14.20;99.90
24802;DHT22;12898;50.520;12.152;2022-10-24T17:34:46;14.30;99.90
24802;DHT22;12898;50.520;12.152;2022-10-24T17:37:28;14.30;99.90
24802;DHT22;12898;50.520;12.152;2022-10-24T17:40:17;14.30;99.90
24802;DHT22;12898;50.520;12.152;2022-10-24T17:42:44;14.20;99.90
24802;DHT22;12898;50.520;12.152;2022-10-24T17:45:17;14.20;99.90
24802;DHT22;12898;50.520;12.152;2022-10-24T17:47:44;14.10;99.90
24802;DHT22;12898;50.520;12.152;2022-10-24T17:50:10;14.10;99.90